Glynn, Louisiana
Current Conditions -  °F | °C
As of 10:15 AM on Tuesday 21 Oct 2014 (Local Time) from KHZR Reporting Station
Clear Clear  
Wind Chill: 70°   Ceiling: Unl
Heat Index: 70°   Visibility: 10mi
Dew Point: 53°   Wind: 6mph
Humidity: 54%   Direction: 60°ENE
Pressure: 30.09"   Gusts: NA
Location:  30.63°N, 91.36°W
Report Text: KHZR 211515Z AUTO 06005KT 10SM CLR 21/12 A3009 RMK AO2 T02120115
Loading
Personal Weather Stations






























Interactive Weather Map
Tropical Storm Tracking
New forecast layout! Learn more

10-Day Weather Forecast

Advertisements
Track Severe Weather on mobile